createdAt,value
2017-01-17T00:00:44.998Z,-2.5
2017-01-17T00:10:57.838Z,-2.8
2017-01-17T00:21:10.843Z,-2.9
2017-01-17T00:31:23.455Z,-2.9
2017-01-17T00:41:36.295Z,-3.1
2017-01-17T00:51:49.076Z,-3.2
2017-01-17T01:02:01.806Z,-3.1
2017-01-17T01:12:14.568Z,-3.1
2017-01-17T01:22:27.296Z,-3.2
2017-01-17T01:32:40.016Z,-3.2
2017-01-17T01:42:52.747Z,-3.3
2017-01-17T01:53:05.509Z,-3.2
2017-01-17T02:03:18.286Z,-3.3
2017-01-17T02:13:31.091Z,-3.2
2017-01-17T02:23:43.911Z,-3.1
2017-01-17T02:33:56.716Z,-3.1
2017-01-17T02:44:09.550Z,-3.2
2017-01-17T02:54:22.335Z,-3
2017-01-17T03:04:35.172Z,-3
2017-01-17T03:14:47.994Z,-3
2017-01-17T03:25:00.791Z,-3.2
2017-01-17T03:35:13.687Z,-3.3
2017-01-17T03:45:26.714Z,-3.4
2017-01-17T03:55:39.790Z,-3.5
2017-01-17T04:05:52.928Z,-3.5
2017-01-17T04:16:06.095Z,-3.7
2017-01-17T04:26:19.247Z,-3.7
2017-01-17T04:36:32.464Z,-3.5
2017-01-17T04:46:45.654Z,-3.6
2017-01-17T04:56:58.833Z,-3.6
2017-01-17T05:07:11.998Z,-3.7
2017-01-17T05:17:25.154Z,-4
2017-01-17T05:27:38.343Z,-4.1
2017-01-17T05:37:51.471Z,-4.2
2017-01-17T05:48:04.587Z,-4.2
2017-01-17T05:58:17.638Z,-4
2017-01-17T06:08:30.688Z,-4.1
2017-01-17T06:18:43.637Z,-4
2017-01-17T06:28:56.554Z,-3.9
2017-01-17T06:39:09.516Z,-4.2
2017-01-17T06:49:22.477Z,-4.2
2017-01-17T06:59:35.605Z,-4.1
2017-01-17T07:09:48.383Z,-4.1
2017-01-17T07:20:01.168Z,-4
2017-01-17T07:30:14.056Z,-4.1
2017-01-17T07:40:26.876Z,-4.3
2017-01-17T07:50:39.762Z,-4.2
2017-01-17T08:00:52.638Z,-4
2017-01-17T08:11:05.532Z,-4.2
2017-01-17T08:21:18.383Z,-4.2
2017-01-17T08:31:31.224Z,-4.2
2017-01-17T08:41:43.981Z,-4.1
2017-01-17T08:51:56.827Z,-4.3
2017-01-17T09:02:09.597Z,-4.5
2017-01-17T09:12:22.355Z,-4.4
2017-01-17T09:22:35.155Z,-4.4
2017-01-17T09:32:48.030Z,-4
2017-01-17T09:43:00.618Z,-4.1
2017-01-17T09:53:13.263Z,-3.9
2017-01-17T10:03:25.760Z,-3.9
2017-01-17T10:13:38.600Z,-4
2017-01-17T10:23:50.916Z,-4
2017-01-17T10:34:03.422Z,-3.9
2017-01-17T10:44:15.929Z,-3.6
2017-01-17T10:54:28.404Z,-3.7
2017-01-17T11:04:40.780Z,-3.6
2017-01-17T11:14:53.323Z,-3.9
2017-01-17T11:25:05.851Z,-3.6
2017-01-17T11:35:18.345Z,-3.7
2017-01-17T11:45:30.933Z,-3.6
2017-01-17T11:55:43.349Z,-3.7
2017-01-17T12:05:55.781Z,-3.5
2017-01-17T12:16:08.150Z,-3.8
2017-01-17T12:26:20.576Z,-3.5
2017-01-17T12:36:33.013Z,-3.6
2017-01-17T12:46:45.555Z,-3.6
2017-01-17T12:56:57.900Z,-3.3
2017-01-17T13:07:10.326Z,-3.1
2017-01-17T13:17:22.764Z,-3.4
2017-01-17T13:27:35.249Z,-3.4
2017-01-17T13:37:47.658Z,-3.2
2017-01-17T13:48:00.045Z,-3.1
2017-01-17T13:58:12.391Z,-3.2
2017-01-17T14:08:24.752Z,-3.1
2017-01-17T14:18:37.151Z,-3.2
2017-01-17T14:28:49.643Z,-3.3
2017-01-17T14:39:02.164Z,-3
2017-01-17T14:49:14.624Z,-3
2017-01-17T14:59:27.171Z,-3
2017-01-17T15:09:39.761Z,-2.9
2017-01-17T15:19:52.431Z,-3
2017-01-17T15:30:04.934Z,-3
2017-01-17T15:40:17.583Z,-2.8
2017-01-17T15:50:30.236Z,-2.9
2017-01-17T16:00:42.981Z,-2.8
2017-01-17T16:10:55.483Z,-3
2017-01-17T16:21:08.131Z,-3
2017-01-17T16:31:20.882Z,-3.1
2017-01-17T16:41:33.678Z,-2.9
2017-01-17T16:51:46.529Z,-2.9
2017-01-17T17:01:59.146Z,-3.1
2017-01-17T17:12:11.891Z,-3.2
2017-01-17T17:22:24.627Z,-3.2
2017-01-17T17:32:37.405Z,-3.2
2017-01-17T17:42:50.123Z,-3.2
2017-01-17T17:53:02.910Z,-3
2017-01-17T18:03:15.649Z,-3
2017-01-17T18:13:28.371Z,-3.2
2017-01-17T18:23:41.076Z,-3.1
2017-01-17T18:33:53.891Z,-3
2017-01-17T18:44:06.682Z,-3.2
2017-01-17T18:54:19.474Z,-3.3
2017-01-17T19:04:32.234Z,-3.3
2017-01-17T19:14:45.051Z,-3.1
2017-01-17T19:24:57.788Z,-3.2
2017-01-17T19:35:10.536Z,-3.3
2017-01-17T19:45:23.291Z,-3.2
2017-01-17T19:55:36.051Z,-3.3
2017-01-17T20:05:48.793Z,-3.3
2017-01-17T20:16:01.518Z,-3.3
2017-01-17T20:26:14.385Z,-3.1
2017-01-17T20:56:52.831Z,-3
2017-01-17T21:07:05.599Z,-3.1
2017-01-17T21:17:18.328Z,-2.9
2017-01-17T21:27:31.133Z,-3.1
2017-01-17T21:37:43.842Z,-3.2
2017-01-17T21:47:56.499Z,-3
2017-01-17T21:58:09.198Z,-3.1
2017-01-17T22:08:21.915Z,-3.2
2017-01-17T22:18:34.675Z,-3
2017-01-17T22:28:47.434Z,-3
2017-01-17T22:39:00.248Z,-3.2
2017-01-17T22:49:13.048Z,-3.2
2017-01-17T22:59:25.929Z,-3.5
2017-01-17T23:09:38.940Z,-3.5
2017-01-17T23:19:51.917Z,-3.6
2017-01-17T23:30:04.852Z,-3.8
2017-01-17T23:40:17.870Z,-3.7
2017-01-17T23:50:30.880Z,-3.8
